createdAt,value
2018-12-25T00:00:46.534Z,9.27
2018-12-25T00:03:17.246Z,9.20
2018-12-25T00:05:47.725Z,8.67
2018-12-25T00:08:18.179Z,9.87
2018-12-25T00:10:48.673Z,10.87
2018-12-25T00:13:19.293Z,10.23
2018-12-25T00:15:49.823Z,12.83
2018-12-25T00:18:20.335Z,12.17
2018-12-25T00:20:50.899Z,11.00
2018-12-25T00:23:21.363Z,11.37
2018-12-25T00:25:51.825Z,10.50
2018-12-25T00:28:23.262Z,11.57
2018-12-25T00:30:53.885Z,13.43
2018-12-25T00:33:24.484Z,13.33
2018-12-25T00:35:55.182Z,13.87
2018-12-25T00:38:25.599Z,13.23
2018-12-25T00:40:56.083Z,11.87
2018-12-25T00:43:26.676Z,13.83
2018-12-25T00:45:57.152Z,12.70
2018-12-25T00:48:27.590Z,13.70
2018-12-25T00:50:58.202Z,14.33
2018-12-25T00:53:28.579Z,14.40
2018-12-25T00:55:58.940Z,17.87
2018-12-25T00:58:29.464Z,14.60
2018-12-25T01:00:59.855Z,12.87
2018-12-25T01:03:30.362Z,14.57
2018-12-25T01:06:01.042Z,17.30
2018-12-25T01:08:31.534Z,17.47
2018-12-25T01:11:02.115Z,14.60
2018-12-25T01:13:32.665Z,15.67
2018-12-25T01:16:03.225Z,16.47
2018-12-25T01:18:33.857Z,14.47
2018-12-25T01:21:04.479Z,14.50
2018-12-25T01:23:34.997Z,16.70
2018-12-25T01:26:05.633Z,16.73
2018-12-25T01:28:36.506Z,15.90
2018-12-25T01:31:06.975Z,17.40
2018-12-25T01:33:37.403Z,16.00
2018-12-25T01:36:08.355Z,16.63
2018-12-25T01:38:38.773Z,19.57
2018-12-25T01:41:09.359Z,17.63
2018-12-25T01:43:39.833Z,16.97
2018-12-25T01:46:10.585Z,17.20
2018-12-25T01:48:41.055Z,16.40
2018-12-25T01:51:12.025Z,16.23
2018-12-25T01:53:42.530Z,17.73
2018-12-25T01:56:13.063Z,16.97
2018-12-25T01:58:44.505Z,18.73
2018-12-25T02:01:15.005Z,20.57
2018-12-25T02:03:45.510Z,18.33
2018-12-25T02:06:16.005Z,16.73
2018-12-25T02:08:46.587Z,18.27
2018-12-25T02:11:17.083Z,18.47
2018-12-25T02:13:47.721Z,20.20
2018-12-25T02:16:18.259Z,24.77
2018-12-25T02:18:48.760Z,21.03
2018-12-25T02:21:19.145Z,18.90
2018-12-25T02:23:49.592Z,19.97
2018-12-25T02:26:20.103Z,28.00
2018-12-25T02:28:50.623Z,23.80
2018-12-25T02:31:21.193Z,19.63
2018-12-25T02:33:51.689Z,20.80
2018-12-25T02:36:22.133Z,23.50
2018-12-25T02:38:52.623Z,23.37
2018-12-25T02:41:23.179Z,24.90
2018-12-25T02:43:53.676Z,30.07
2018-12-25T02:46:24.202Z,26.40
2018-12-25T02:48:54.804Z,27.83
2018-12-25T02:51:25.463Z,25.53
2018-12-25T02:53:55.923Z,26.60
2018-12-25T02:56:26.555Z,26.77
2018-12-25T02:58:57.050Z,26.80
2018-12-25T03:01:27.547Z,24.00
2018-12-25T03:03:57.953Z,28.60
2018-12-25T03:06:28.634Z,20.17
2018-12-25T03:08:59.220Z,26.20
2018-12-25T03:11:29.756Z,22.87
2018-12-25T03:14:00.179Z,24.70
2018-12-25T03:16:30.755Z,23.27
2018-12-25T03:19:01.213Z,22.17
2018-12-25T03:21:31.722Z,23.30
2018-12-25T03:24:02.285Z,21.43
2018-12-25T03:26:32.815Z,22.43
2018-12-25T03:29:03.350Z,24.23
2018-12-25T03:31:33.961Z,21.47
2018-12-25T03:34:04.575Z,24.23
2018-12-25T03:36:35.102Z,23.70
2018-12-25T03:39:07.860Z,20.53
2018-12-25T03:41:38.373Z,20.13
2018-12-25T03:44:08.851Z,16.93
2018-12-25T03:46:39.510Z,26.03
2018-12-25T03:49:10.000Z,20.00
2018-12-25T03:51:40.381Z,20.80
2018-12-25T03:54:10.831Z,20.23
2018-12-25T03:56:41.220Z,23.07
2018-12-25T03:59:11.854Z,20.13
2018-12-25T04:01:42.311Z,18.77
2018-12-25T04:04:12.673Z,19.43
2018-12-25T04:06:43.246Z,18.50
2018-12-25T04:09:14.439Z,20.17
2018-12-25T04:11:44.969Z,19.37
2018-12-25T04:14:15.520Z,20.97
2018-12-25T04:16:46.175Z,20.37
2018-12-25T04:19:16.750Z,18.77
2018-12-25T04:21:47.210Z,20.53
2018-12-25T04:24:17.640Z,19.67
2018-12-25T04:26:48.119Z,20.23
2018-12-25T04:29:18.502Z,21.37
2018-12-25T04:31:48.946Z,24.30
2018-12-25T04:34:19.450Z,24.73
2018-12-25T04:36:49.920Z,18.20
2018-12-25T04:39:21.194Z,16.80
2018-12-25T04:41:51.741Z,20.23
2018-12-25T04:44:22.185Z,18.70
2018-12-25T04:46:52.676Z,18.60
2018-12-25T04:49:23.196Z,18.73
2018-12-25T04:51:53.576Z,17.87
2018-12-25T04:54:24.180Z,20.93
2018-12-25T04:56:54.759Z,19.10
2018-12-25T04:59:25.110Z,19.33
2018-12-25T05:01:55.551Z,22.00
2018-12-25T05:04:25.924Z,21.30
2018-12-25T05:06:56.845Z,18.93
2018-12-25T05:09:27.314Z,19.77
2018-12-25T05:11:57.743Z,20.53
2018-12-25T05:14:28.300Z,20.47
2018-12-25T05:16:58.883Z,22.37
2018-12-25T05:19:29.220Z,19.87
2018-12-25T05:21:59.630Z,20.27
2018-12-25T05:24:30.056Z,19.93
2018-12-25T05:27:00.660Z,21.30
2018-12-25T05:29:31.209Z,16.87
2018-12-25T05:32:01.600Z,19.33
2018-12-25T05:34:32.178Z,13.20
2018-12-25T05:37:02.811Z,15.57
2018-12-25T05:39:33.304Z,17.77
2018-12-25T05:42:03.779Z,17.03
2018-12-25T05:44:34.134Z,15.10
2018-12-25T05:47:04.636Z,15.23
2018-12-25T05:49:35.114Z,20.43
2018-12-25T05:52:05.655Z,16.20
2018-12-25T05:54:36.043Z,17.20
2018-12-25T05:57:06.651Z,19.93
2018-12-25T05:59:37.156Z,19.73
2018-12-25T06:02:07.830Z,14.07
2018-12-25T06:04:38.231Z,18.00
2018-12-25T06:07:08.743Z,21.27
2018-12-25T06:09:39.235Z,15.90
2018-12-25T06:12:09.635Z,12.87
2018-12-25T06:14:40.184Z,12.90
2018-12-25T06:17:10.653Z,16.70
2018-12-25T06:19:41.163Z,15.77
2018-12-25T06:22:11.555Z,15.53
2018-12-25T06:24:42.083Z,17.77
2018-12-25T06:27:12.785Z,16.10
2018-12-25T06:29:43.225Z,18.23
2018-12-25T06:32:13.820Z,16.93
2018-12-25T06:34:44.505Z,18.53
2018-12-25T06:37:15.026Z,19.10
2018-12-25T06:39:45.525Z,16.93
2018-12-25T06:42:15.964Z,22.70
2018-12-25T06:44:46.655Z,24.47
2018-12-25T06:47:17.063Z,22.87
2018-12-25T06:49:47.492Z,23.83
2018-12-25T06:52:17.951Z,22.53
2018-12-25T06:54:48.315Z,21.37
2018-12-25T06:57:18.820Z,24.17
2018-12-25T06:59:49.399Z,26.57
2018-12-25T07:02:19.846Z,30.87
2018-12-25T07:04:50.331Z,31.53
2018-12-25T07:07:20.749Z,30.20
2018-12-25T07:09:51.387Z,35.80
2018-12-25T07:12:21.900Z,38.17
2018-12-25T07:14:52.350Z,38.27
2018-12-25T07:17:22.788Z,42.70
2018-12-25T07:19:53.485Z,37.33
2018-12-25T07:22:23.854Z,38.80
2018-12-25T07:24:54.288Z,39.33
2018-12-25T07:27:24.695Z,39.93
2018-12-25T07:29:55.119Z,37.80
2018-12-25T07:32:25.574Z,37.50
2018-12-25T07:34:56.048Z,29.03
2018-12-25T07:37:26.700Z,31.80
2018-12-25T07:39:57.189Z,30.40
2018-12-25T07:42:27.710Z,33.00
2018-12-25T07:44:58.209Z,37.93
2018-12-25T07:47:28.658Z,34.53
2018-12-25T07:49:59.144Z,39.87
2018-12-25T07:52:29.910Z,38.73
2018-12-25T07:55:00.344Z,46.40
2018-12-25T07:57:30.849Z,39.00
2018-12-25T08:00:01.439Z,41.63
2018-12-25T08:02:32.072Z,47.20
2018-12-25T08:05:02.604Z,41.90
2018-12-25T08:07:33.388Z,44.00
2018-12-25T08:10:04.178Z,50.10
2018-12-25T08:12:34.624Z,45.50
2018-12-25T08:15:05.325Z,50.00
2018-12-25T08:17:35.842Z,47.10
2018-12-25T08:20:07.215Z,85.07
2018-12-25T08:22:37.771Z,58.57
2018-12-25T08:25:08.242Z,60.33
2018-12-25T08:27:38.674Z,56.13
2018-12-25T08:30:09.319Z,41.90
2018-12-25T08:32:39.748Z,47.33
2018-12-25T08:35:10.095Z,44.87
2018-12-25T08:37:40.446Z,40.63
2018-12-25T08:40:11.132Z,34.53
2018-12-25T08:42:41.601Z,31.80
2018-12-25T08:45:11.994Z,36.30
2018-12-25T08:47:42.834Z,32.80
2018-12-25T08:50:14.695Z,30.43
2018-12-25T08:52:45.688Z,26.83
2018-12-25T08:55:16.148Z,24.23
2018-12-25T08:57:46.611Z,24.27
2018-12-25T09:00:17.199Z,21.27
2018-12-25T09:02:47.590Z,18.60
2018-12-25T09:05:18.032Z,16.07
2018-12-25T09:07:48.545Z,16.00
2018-12-25T09:10:18.982Z,14.43
2018-12-25T09:12:49.415Z,11.73
2018-12-25T09:15:20.054Z,14.87
2018-12-25T09:17:50.583Z,10.73
2018-12-25T09:20:21.044Z,12.07
2018-12-25T09:22:51.643Z,9.53
2018-12-25T09:25:22.212Z,9.67
2018-12-25T09:27:52.616Z,6.63
2018-12-25T09:30:23.250Z,7.80
2018-12-25T09:32:53.739Z,5.87
2018-12-25T09:35:24.378Z,14.40
2018-12-25T09:37:54.928Z,10.13
2018-12-25T09:40:25.382Z,13.47
2018-12-25T09:42:55.816Z,9.53
2018-12-25T09:45:26.343Z,18.17
2018-12-25T09:47:56.767Z,19.67
2018-12-25T09:50:27.232Z,22.63
2018-12-25T09:52:57.794Z,12.90
2018-12-25T09:55:28.319Z,15.33
2018-12-25T09:57:58.762Z,17.70
2018-12-25T10:00:29.323Z,18.47
2018-12-25T10:02:59.982Z,12.13
2018-12-25T10:05:30.322Z,9.33
2018-12-25T10:08:00.871Z,14.47
2018-12-25T10:10:33.089Z,10.67
2018-12-25T10:13:03.534Z,16.50
2018-12-25T10:15:33.895Z,17.00
2018-12-25T10:18:04.421Z,14.23
2018-12-25T10:20:35.075Z,11.87
2018-12-25T10:23:05.644Z,14.40
2018-12-25T10:25:36.274Z,11.27
2018-12-25T10:28:06.823Z,14.30
2018-12-25T10:30:37.370Z,10.03
2018-12-25T10:33:07.920Z,12.77
2018-12-25T10:35:38.353Z,15.30
2018-12-25T10:38:08.811Z,13.37
2018-12-25T10:40:39.274Z,18.23
2018-12-25T10:43:09.871Z,12.07
2018-12-25T10:45:40.728Z,14.10
2018-12-25T10:48:11.348Z,25.20
2018-12-25T10:50:41.997Z,23.47
2018-12-25T10:53:12.655Z,17.80
2018-12-25T10:55:43.210Z,16.83
2018-12-25T10:58:13.778Z,15.37
2018-12-25T11:00:50.602Z,15.67
2018-12-25T11:03:21.474Z,13.70
2018-12-25T11:05:51.915Z,11.00
2018-12-25T11:08:22.395Z,19.57
2018-12-25T11:10:53.082Z,17.33
2018-12-25T11:13:23.584Z,22.47
2018-12-25T11:15:54.609Z,23.43
2018-12-25T11:18:25.314Z,18.27
2018-12-25T11:20:56.097Z,14.23
2018-12-25T11:23:26.659Z,16.10
2018-12-25T11:25:57.184Z,15.90
2018-12-25T11:28:27.664Z,13.83
2018-12-25T11:30:58.409Z,11.53
2018-12-25T11:33:28.864Z,15.60
2018-12-25T11:35:59.255Z,11.20
2018-12-25T11:38:29.685Z,14.27
2018-12-25T11:41:00.283Z,18.10
2018-12-25T11:43:30.912Z,16.87
2018-12-25T11:46:01.509Z,16.17
2018-12-25T11:48:31.917Z,10.83
2018-12-25T11:51:02.474Z,17.10
2018-12-25T11:53:33.034Z,10.53
2018-12-25T11:56:03.774Z,17.60
2018-12-25T11:58:34.212Z,8.73
2018-12-25T12:01:04.822Z,12.50
2018-12-25T12:03:35.563Z,10.93
2018-12-25T12:06:06.098Z,9.67
2018-12-25T12:08:36.543Z,15.30
2018-12-25T12:11:07.069Z,11.90
2018-12-25T12:13:37.690Z,12.57
2018-12-25T12:16:08.451Z,11.93
2018-12-25T12:18:38.955Z,17.10
2018-12-25T12:21:09.482Z,17.23
2018-12-25T12:23:40.045Z,20.20
2018-12-25T12:26:11.572Z,21.07
2018-12-25T12:28:42.054Z,17.87
2018-12-25T12:31:12.575Z,10.90
2018-12-25T12:33:43.066Z,16.43
2018-12-25T12:36:13.565Z,15.90
2018-12-25T12:38:44.022Z,15.43
2018-12-25T12:41:14.679Z,9.13
2018-12-25T12:43:45.214Z,11.60
2018-12-25T12:46:15.744Z,14.43
2018-12-25T12:48:46.293Z,18.90
2018-12-25T12:51:16.819Z,16.23
2018-12-25T12:53:47.169Z,16.70
2018-12-25T12:56:17.699Z,14.70
2018-12-25T12:58:48.152Z,21.40
2018-12-25T13:01:18.735Z,15.90
2018-12-25T13:03:49.272Z,15.47
2018-12-25T13:06:19.875Z,19.53
2018-12-25T13:08:50.236Z,15.57
2018-12-25T13:11:20.861Z,12.20
2018-12-25T13:13:51.392Z,21.27
2018-12-25T13:16:22.045Z,16.60
2018-12-25T13:18:52.531Z,17.33
2018-12-25T13:21:23.002Z,15.17
2018-12-25T13:23:53.655Z,15.00
2018-12-25T13:26:24.078Z,18.17
2018-12-25T13:28:54.930Z,18.07
2018-12-25T13:31:25.412Z,26.97
2018-12-25T13:33:55.890Z,22.67
2018-12-25T13:36:26.574Z,20.80
2018-12-25T13:38:57.124Z,19.93
2018-12-25T13:41:27.649Z,25.13
2018-12-25T13:43:58.060Z,21.47
2018-12-25T13:46:28.594Z,20.60
2018-12-25T13:48:59.092Z,19.77
2018-12-25T13:51:30.012Z,17.70
2018-12-25T13:54:00.523Z,19.00
2018-12-25T13:56:31.054Z,21.40
2018-12-25T13:59:01.484Z,19.60
2018-12-25T14:01:31.978Z,21.63
2018-12-25T14:04:02.548Z,32.03
2018-12-25T14:06:32.984Z,32.87
2018-12-25T14:09:04.075Z,40.90
2018-12-25T14:11:34.639Z,21.40
2018-12-25T14:14:05.154Z,22.23
2018-12-25T14:16:35.954Z,18.30
2018-12-25T14:19:06.531Z,22.63
2018-12-25T14:21:37.484Z,80.07
2018-12-25T14:24:08.240Z,55.30
2018-12-25T14:26:38.653Z,25.47
2018-12-25T14:29:09.279Z,25.00
2018-12-25T14:31:39.920Z,33.27
2018-12-25T14:34:10.713Z,20.23
2018-12-25T14:36:41.250Z,16.37
2018-12-25T14:39:11.764Z,16.60
2018-12-25T14:41:42.229Z,26.53
2018-12-25T14:44:13.005Z,20.90
2018-12-25T14:46:43.585Z,13.00
2018-12-25T14:49:14.010Z,23.13
2018-12-25T14:51:44.555Z,22.00
2018-12-25T14:54:15.167Z,19.17
2018-12-25T14:56:45.732Z,27.53
2018-12-25T14:59:16.192Z,27.13
2018-12-25T15:01:46.988Z,30.93
2018-12-25T15:04:17.465Z,26.87
2018-12-25T15:06:48.209Z,21.70
2018-12-25T15:09:18.659Z,26.40
2018-12-25T15:11:49.108Z,26.50
2018-12-25T15:14:19.690Z,31.40
2018-12-25T15:16:50.209Z,23.53
2018-12-25T15:19:20.675Z,21.30
2018-12-25T15:21:51.193Z,29.63
2018-12-25T15:24:21.696Z,28.30
2018-12-25T15:26:52.193Z,22.60
2018-12-25T15:29:23.565Z,28.23
2018-12-25T15:31:55.101Z,27.33
2018-12-25T15:34:25.598Z,24.20
2018-12-25T15:36:56.393Z,24.50
2018-12-25T15:39:26.865Z,30.10
2018-12-25T15:41:57.375Z,20.83
2018-12-25T15:44:27.843Z,21.80
2018-12-25T15:46:58.305Z,25.13
2018-12-25T15:49:28.824Z,17.87
2018-12-25T15:51:59.393Z,23.57
2018-12-25T15:54:29.863Z,27.40
2018-12-25T15:57:02.564Z,22.00
2018-12-25T15:59:33.030Z,22.43
2018-12-25T16:02:03.501Z,17.60
2018-12-25T16:04:34.054Z,17.20
2018-12-25T16:07:04.622Z,13.97
2018-12-25T16:09:35.156Z,13.40
2018-12-25T16:12:05.755Z,13.70
2018-12-25T16:14:36.284Z,12.90
2018-12-25T16:17:06.962Z,11.17
2018-12-25T16:19:37.583Z,18.17
2018-12-25T16:22:08.045Z,11.43
2018-12-25T16:24:38.771Z,11.20
2018-12-25T16:27:09.251Z,21.90
2018-12-25T16:29:39.849Z,14.53
2018-12-25T16:32:10.436Z,15.53
2018-12-25T16:34:40.906Z,15.10
2018-12-25T16:37:11.402Z,14.23
2018-12-25T16:39:41.989Z,19.80
2018-12-25T16:42:12.422Z,14.63
2018-12-25T16:44:43.305Z,20.50
2018-12-25T16:47:14.047Z,20.23
2018-12-25T16:49:44.683Z,17.33
2018-12-25T16:52:15.160Z,15.97
2018-12-25T16:54:45.663Z,23.07
2018-12-25T16:57:16.319Z,17.57
2018-12-25T16:59:46.998Z,19.00
2018-12-25T17:02:17.355Z,13.67
2018-12-25T17:04:47.835Z,17.13
2018-12-25T17:07:18.289Z,14.90
2018-12-25T17:09:48.955Z,14.30
2018-12-25T17:12:19.419Z,19.43
2018-12-25T17:14:49.880Z,18.43
2018-12-25T17:17:20.384Z,13.37
2018-12-25T17:19:50.784Z,16.80
2018-12-25T17:22:21.454Z,18.10
2018-12-25T17:24:52.155Z,16.63
2018-12-25T17:27:22.604Z,16.20
2018-12-25T17:29:53.285Z,15.57
2018-12-25T17:32:23.862Z,15.37
2018-12-25T17:34:54.374Z,11.53
2018-12-25T17:37:25.019Z,16.03
2018-12-25T17:39:55.544Z,21.10
2018-12-25T17:42:26.129Z,14.53
2018-12-25T17:44:56.666Z,10.40
2018-12-25T17:47:27.110Z,13.70
2018-12-25T17:49:57.571Z,14.50
2018-12-25T17:52:28.110Z,16.40
2018-12-25T17:54:58.671Z,11.40
2018-12-25T17:57:29.260Z,16.93
2018-12-25T17:59:59.740Z,16.90
2018-12-25T18:02:30.312Z,15.10
2018-12-25T18:05:00.949Z,15.13
2018-12-25T18:07:31.492Z,12.43
2018-12-25T18:10:01.942Z,15.20
2018-12-25T18:12:32.461Z,12.43
2018-12-25T18:15:03.137Z,14.23
2018-12-25T18:17:33.650Z,13.43
2018-12-25T18:20:04.242Z,14.03
2018-12-25T18:22:35.555Z,15.00
2018-12-25T18:25:06.053Z,17.20
2018-12-25T18:27:36.705Z,19.03
2018-12-25T18:30:07.684Z,15.00
2018-12-25T18:32:38.079Z,21.90
2018-12-25T18:35:08.656Z,17.13
2018-12-25T18:37:39.243Z,17.17
2018-12-25T18:40:09.786Z,12.43
2018-12-25T18:42:40.215Z,12.23
2018-12-25T18:45:10.784Z,15.47
2018-12-25T18:47:41.329Z,13.80
2018-12-25T18:50:12.052Z,23.33
2018-12-25T18:52:43.019Z,17.90
2018-12-25T18:55:13.593Z,16.43
2018-12-25T18:57:44.400Z,21.23
2018-12-25T19:00:14.967Z,15.57
2018-12-25T19:02:45.396Z,12.53
2018-12-25T19:05:16.060Z,17.73
2018-12-25T19:07:46.641Z,28.17
2018-12-25T19:10:17.073Z,13.17
2018-12-25T19:12:47.640Z,28.67
2018-12-25T19:15:27.818Z,17.40
2018-12-25T19:18:00.484Z,23.97
2018-12-25T19:20:31.089Z,22.60
2018-12-25T19:23:01.626Z,22.50
2018-12-25T19:25:32.129Z,13.30
2018-12-25T19:28:02.530Z,13.80
2018-12-25T19:30:36.355Z,9.93
2018-12-25T19:33:07.009Z,10.27
2018-12-25T19:35:37.632Z,11.10
2018-12-25T19:38:08.179Z,7.33
2018-12-25T19:40:38.773Z,10.17
2018-12-25T19:43:11.073Z,7.70
2018-12-25T19:45:41.786Z,10.67
2018-12-25T19:48:12.422Z,10.63
2018-12-25T19:50:43.001Z,19.37
2018-12-25T19:53:13.579Z,11.87
2018-12-25T19:55:44.375Z,13.17
2018-12-25T19:58:14.916Z,12.93
2018-12-25T20:00:45.530Z,19.77
2018-12-25T20:03:31.395Z,12.83
2018-12-25T20:06:59.272Z,29.93
2018-12-25T20:10:10.243Z,19.90
2018-12-25T20:13:38.105Z,9.30
2018-12-25T20:16:55.906Z,13.93
2018-12-25T20:20:15.739Z,18.07
2018-12-25T20:23:36.124Z,14.53
2018-12-25T20:26:49.793Z,14.30
2018-12-25T20:30:03.754Z,13.40
2018-12-25T20:33:29.119Z,13.10
2018-12-25T20:36:55.824Z,18.07
2018-12-25T20:40:24.105Z,16.03
2018-12-25T20:43:42.767Z,16.03
2018-12-25T20:47:01.823Z,14.70
2018-12-25T20:50:27.970Z,9.03
2018-12-25T20:53:55.906Z,16.60
2018-12-25T20:57:23.892Z,8.97
2018-12-25T21:00:33.365Z,18.43
2018-12-25T21:04:01.380Z,13.80
2018-12-25T21:07:19.790Z,16.53
2018-12-25T21:10:47.802Z,13.93
2018-12-25T21:14:10.562Z,16.73
2018-12-25T21:17:38.574Z,20.63
2018-12-25T21:21:02.182Z,16.53
2018-12-25T21:24:30.121Z,17.80
2018-12-25T21:27:38.160Z,16.63
2018-12-25T21:30:10.627Z,17.10
2018-12-25T21:32:43.864Z,21.23
2018-12-25T21:35:21.872Z,23.80
2018-12-25T21:37:54.439Z,17.90
2018-12-25T21:40:25.150Z,21.70
2018-12-25T21:42:57.202Z,22.60
2018-12-25T21:45:27.751Z,20.43
2018-12-25T21:47:58.643Z,21.57
2018-12-25T21:50:29.870Z,22.60
2018-12-25T21:53:00.393Z,17.33
2018-12-25T21:55:30.986Z,16.67
2018-12-25T21:58:01.924Z,16.33
2018-12-25T22:00:35.486Z,17.97
2018-12-25T22:03:06.255Z,16.57
2018-12-25T22:05:36.860Z,18.30
2018-12-25T22:08:08.214Z,22.77
2018-12-25T22:10:38.601Z,12.40
2018-12-25T22:13:09.137Z,18.43
2018-12-25T22:15:39.623Z,16.43
2018-12-25T22:18:10.174Z,18.57
2018-12-25T22:20:41.521Z,16.23
2018-12-25T22:23:12.066Z,20.20
2018-12-25T22:25:42.714Z,17.87
2018-12-25T22:28:13.423Z,23.93
2018-12-25T22:30:44.004Z,20.43
2018-12-25T22:33:14.406Z,20.13
2018-12-25T22:35:45.005Z,25.97
2018-12-25T22:38:15.586Z,25.07
2018-12-25T22:40:46.132Z,21.80
2018-12-25T22:43:16.713Z,20.57
2018-12-25T22:45:47.176Z,17.93
2018-12-25T22:48:17.771Z,19.30
2018-12-25T22:50:48.266Z,18.83
2018-12-25T22:53:18.884Z,18.50
2018-12-25T22:55:49.254Z,23.43
2018-12-25T22:58:19.858Z,21.40
2018-12-25T23:00:51.926Z,18.57
2018-12-25T23:03:22.646Z,21.60
2018-12-25T23:05:53.134Z,21.67
2018-12-25T23:08:23.557Z,20.63
2018-12-25T23:10:54.066Z,20.20
2018-12-25T23:13:24.655Z,19.63
2018-12-25T23:15:55.201Z,15.17
2018-12-25T23:18:26.045Z,18.40
2018-12-25T23:20:56.488Z,20.07
2018-12-25T23:23:26.886Z,20.37
2018-12-25T23:25:57.373Z,16.90
2018-12-25T23:28:27.843Z,19.40
2018-12-25T23:30:58.466Z,16.97
2018-12-25T23:33:28.992Z,14.70
2018-12-25T23:35:59.535Z,16.93
2018-12-25T23:38:30.817Z,14.27
2018-12-25T23:41:01.326Z,14.83
2018-12-25T23:43:31.803Z,17.10
2018-12-25T23:46:02.344Z,14.83
2018-12-25T23:48:32.874Z,14.13
2018-12-25T23:51:03.405Z,16.73
2018-12-25T23:53:33.977Z,11.83
2018-12-25T23:56:04.635Z,15.90
2018-12-25T23:58:35.185Z,14.93
